sensor_id;sensor_type;location;lat;lon;timestamp;pressure;altitude;pressure_sealevel;temperature;humidity
58622;BME280;44389;51.578;5.456;2023-10-08T00:01:14;102162.19;;;15.73;100.00
58622;BME280;44389;51.578;5.456;2023-10-08T00:03:39;102157.75;;;15.69;100.00
58622;BME280;44389;51.578;5.456;2023-10-08T00:06:06;102161.19;;;15.68;100.00
58622;BME280;44389;51.578;5.456;2023-10-08T00:08:38;102167.97;;;15.63;100.00
58622;BME280;44389;51.578;5.456;2023-10-08T00:11:03;102154.06;;;15.61;100.00
58622;BME280;44389;51.578;5.456;2023-10-08T00:13:32;102153.94;;;15.58;100.00
58622;BME280;44389;51.578;5.456;2023-10-08T00:16:07;102151.22;;;15.53;100.00
58622;BME280;44389;51.578;5.456;2023-10-08T00:18:35;102152.88;;;15.51;100.00
58622;BME280;44389;51.578;5.456;2023-10-08T00:21:02;102161.44;;;15.47;100.00
58622;BME280;44389;51.578;5.456;2023-10-08T00:23:36;102161.31;;;15.44;100.00
58622;BME280;44389;51.578;5.456;2023-10-08T00:26:06;102160.38;;;15.40;100.00
58622;BME280;44389;51.578;5.456;2023-10-08T00:28:32;102175.84;;;15.37;100.00
58622;BME280;44389;51.578;5.456;2023-10-08T00:30:58;102166.25;;;15.35;100.00
58622;BME280;44389;51.578;5.456;2023-10-08T00:33:30;102172.22;;;15.32;100.00
58622;BME280;44389;51.578;5.456;2023-10-08T00:35:55;102173.00;;;15.29;100.00
58622;BME280;44389;51.578;5.456;2023-10-08T00:38:21;102171.16;;;15.25;100.00
58622;BME280;44389;51.578;5.456;2023-10-08T00:40:46;102163.28;;;15.22;100.00
58622;BME280;44389;51.578;5.456;2023-10-08T00:43:33;102172.56;;;15.15;100.00
58622;BME280;44389;51.578;5.456;2023-10-08T00:46:02;102175.06;;;15.12;100.00
58622;BME280;44389;51.578;5.456;2023-10-08T00:48:43;102172.28;;;15.06;100.00
58622;BME280;44389;51.578;5.456;2023-10-08T00:51:09;102167.72;;;14.99;100.00
58622;BME280;44389;51.578;5.456;2023-10-08T00:54:01;102187.47;;;14.94;100.00
58622;BME280;44389;51.578;5.456;2023-10-08T00:56:31;102188.09;;;14.87;100.00
58622;BME280;44389;51.578;5.456;2023-10-08T00:59:29;102179.16;;;14.78;100.00
58622;BME280;44389;51.578;5.456;2023-10-08T01:01:58;102172.09;;;14.74;100.00
58622;BME280;44389;51.578;5.456;2023-10-08T01:04:29;102170.13;;;14.67;100.00
58622;BME280;44389;51.578;5.456;2023-10-08T01:06:59;102176.78;;;14.60;100.00
58622;BME280;44389;51.578;5.456;2023-10-08T01:09:26;102161.06;;;14.56;100.00
58622;BME280;44389;51.578;5.456;2023-10-08T01:12:10;102159.19;;;14.52;100.00
58622;BME280;44389;51.578;5.456;2023-10-08T01:14:49;102165.13;;;14.47;100.00
58622;BME280;44389;51.578;5.456;2023-10-08T01:17:14;102163.34;;;14.46;100.00
58622;BME280;44389;51.578;5.456;2023-10-08T01:19:44;102167.59;;;14.44;100.00
58622;BME280;44389;51.578;5.456;2023-10-08T01:22:16;102153.56;;;14.39;100.00
58622;BME280;44389;51.578;5.456;2023-10-08T01:24:46;102159.53;;;14.37;100.00
58622;BME280;44389;51.578;5.456;2023-10-08T01:27:17;102155.13;;;14.34;100.00
58622;BME280;44389;51.578;5.456;2023-10-08T01:29:52;102146.34;;;14.30;100.00
58622;BME280;44389;51.578;5.456;2023-10-08T01:32:18;102135.88;;;14.27;100.00
58622;BME280;44389;51.578;5.456;2023-10-08T01:34:44;102132.34;;;14.25;100.00
58622;BME280;44389;51.578;5.456;2023-10-08T01:37:15;102128.88;;;14.25;100.00
58622;BME280;44389;51.578;5.456;2023-10-08T01:39:46;102134.94;;;14.25;100.00
58622;BME280;44389;51.578;5.456;2023-10-08T01:42:15;102134.88;;;14.24;100.00
58622;BME280;44389;51.578;5.456;2023-10-08T01:44:45;102135.00;;;14.27;100.00
58622;BME280;44389;51.578;5.456;2023-10-08T01:47:14;102144.53;;;14.28;100.00
58622;BME280;44389;51.578;5.456;2023-10-08T01:49:41;102142.84;;;14.28;100.00
58622;BME280;44389;51.578;5.456;2023-10-08T01:52:08;102142.84;;;14.28;100.00
58622;BME280;44389;51.578;5.456;2023-10-08T01:54:38;102155.81;;;14.28;100.00
58622;BME280;44389;51.578;5.456;2023-10-08T01:57:03;102165.28;;;14.28;100.00
58622;BME280;44389;51.578;5.456;2023-10-08T01:59:31;102162.69;;;14.28;100.00
58622;BME280;44389;51.578;5.456;2023-10-08T02:01:56;102165.28;;;14.28;100.00
58622;BME280;44389;51.578;5.456;2023-10-08T02:04:22;102173.06;;;14.28;100.00
58622;BME280;44389;51.578;5.456;2023-10-08T02:06:47;102165.19;;;14.25;100.00
58622;BME280;44389;51.578;5.456;2023-10-08T02:09:12;102174.69;;;14.24;100.00
58622;BME280;44389;51.578;5.456;2023-10-08T02:11:42;102168.53;;;14.22;100.00
58622;BME280;44389;51.578;5.456;2023-10-08T02:14:08;102169.38;;;14.21;100.00
58622;BME280;44389;51.578;5.456;2023-10-08T02:16:33;102167.59;;;14.20;100.00
58622;BME280;44389;51.578;5.456;2023-10-08T02:18:58;102165.84;;;14.19;100.00
58622;BME280;44389;51.578;5.456;2023-10-08T02:21:24;102158.91;;;14.18;100.00
58622;BME280;44389;51.578;5.456;2023-10-08T02:23:50;102157.91;;;14.14;100.00
58622;BME280;44389;51.578;5.456;2023-10-08T02:26:17;102167.41;;;14.14;100.00
58622;BME280;44389;51.578;5.456;2023-10-08T02:28:44;102169.09;;;14.13;100.00
58622;BME280;44389;51.578;5.456;2023-10-08T02:31:09;102170.81;;;14.13;100.00
58622;BME280;44389;51.578;5.456;2023-10-08T02:33:34;102168.16;;;14.11;100.00
58622;BME280;44389;51.578;5.456;2023-10-08T02:35:59;102169.84;;;14.11;100.00
58622;BME280;44389;51.578;5.456;2023-10-08T02:38:29;102168.03;;;14.08;100.00
58622;BME280;44389;51.578;5.456;2023-10-08T02:40:54;102167.13;;;14.06;100.00
58622;BME280;44389;51.578;5.456;2023-10-08T02:43:21;102176.53;;;14.04;100.00
58622;BME280;44389;51.578;5.456;2023-10-08T02:45:47;102185.13;;;14.03;100.00
58622;BME280;44389;51.578;5.456;2023-10-08T02:48:14;102188.56;;;14.02;100.00
58622;BME280;44389;51.578;5.456;2023-10-08T02:50:44;102194.59;;;14.01;100.00
58622;BME280;44389;51.578;5.456;2023-10-08T02:53:12;102207.53;;;14.01;100.00
58622;BME280;44389;51.578;5.456;2023-10-08T02:55:42;102214.38;;;13.99;100.00
58622;BME280;44389;51.578;5.456;2023-10-08T02:58:09;102195.31;;;13.97;100.00
58622;BME280;44389;51.578;5.456;2023-10-08T03:00:39;102189.97;;;13.94;100.00
58622;BME280;44389;51.578;5.456;2023-10-08T03:03:05;102195.16;;;13.94;100.00
58622;BME280;44389;51.578;5.456;2023-10-08T03:05:40;102189.97;;;13.94;100.00
58622;BME280;44389;51.578;5.456;2023-10-08T03:08:05;102188.22;;;13.93;100.00
58622;BME280;44389;51.578;5.456;2023-10-08T03:10:36;102189.88;;;13.91;100.00
58622;BME280;44389;51.578;5.456;2023-10-08T03:13:02;102182.94;;;13.90;100.00
58622;BME280;44389;51.578;5.456;2023-10-08T03:15:31;102194.06;;;13.87;100.00
58622;BME280;44389;51.578;5.456;2023-10-08T03:18:04;102190.50;;;13.85;100.00
58622;BME280;44389;51.578;5.456;2023-10-08T03:20:35;102196.59;;;13.86;100.00
58622;BME280;44389;51.578;5.456;2023-10-08T03:23:04;102198.19;;;13.82;100.00
58622;BME280;44389;51.578;5.456;2023-10-08T03:25:55;102194.59;;;13.78;100.00
58622;BME280;44389;51.578;5.456;2023-10-08T03:28:22;102211.81;;;13.76;100.00
58622;BME280;44389;51.578;5.456;2023-10-08T03:30:50;102203.06;;;13.74;100.00
58622;BME280;44389;51.578;5.456;2023-10-08T03:33:18;102198.59;;;13.70;100.00
58622;BME280;44389;51.578;5.456;2023-10-08T03:35:51;102195.13;;;13.70;100.00
58622;BME280;44389;51.578;5.456;2023-10-08T03:38:18;102197.66;;;13.68;100.00
58622;BME280;44389;51.578;5.456;2023-10-08T03:40:46;102201.06;;;13.67;100.00
58622;BME280;44389;51.578;5.456;2023-10-08T03:43:13;102204.50;;;13.66;100.00
58622;BME280;44389;51.578;5.456;2023-10-08T03:45:49;102209.59;;;13.64;100.00
58622;BME280;44389;51.578;5.456;2023-10-08T03:48:19;102209.53;;;13.63;100.00
58622;BME280;44389;51.578;5.456;2023-10-08T03:50:47;102202.59;;;13.62;100.00
58622;BME280;44389;51.578;5.456;2023-10-08T03:53:21;102202.47;;;13.59;100.00
58622;BME280;44389;51.578;5.456;2023-10-08T03:55:47;102213.59;;;13.56;100.00
58622;BME280;44389;51.578;5.456;2023-10-08T03:58:16;102216.16;;;13.55;100.00
58622;BME280;44389;51.578;5.456;2023-10-08T04:00:55;102217.91;;;13.56;100.00
58622;BME280;44389;51.578;5.456;2023-10-08T04:03:36;102192.78;;;13.53;100.00
58622;BME280;44389;51.578;5.456;2023-10-08T04:06:31;102200.47;;;13.52;100.00
58622;BME280;44389;51.578;5.456;2023-10-08T04:09:03;102196.94;;;13.49;100.00
58622;BME280;44389;51.578;5.456;2023-10-08T04:11:37;102196.94;;;13.49;100.00
58622;BME280;44389;51.578;5.456;2023-10-08T04:14:24;102214.25;;;13.50;100.00
58622;BME280;44389;51.578;5.456;2023-10-08T04:16:50;102224.63;;;13.50;100.00
58622;BME280;44389;51.578;5.456;2023-10-08T04:19:17;102227.13;;;13.49;100.00
58622;BME280;44389;51.578;5.456;2023-10-08T04:21:43;102222.03;;;13.50;100.00
58622;BME280;44389;51.578;5.456;2023-10-08T04:24:08;102231.44;;;13.48;100.00
58622;BME280;44389;51.578;5.456;2023-10-08T04:26:34;102219.34;;;13.49;100.00
58622;BME280;44389;51.578;5.456;2023-10-08T04:29:00;102229.66;;;13.47;100.00
58622;BME280;44389;51.578;5.456;2023-10-08T04:31:31;102224.47;;;13.47;100.00
58622;BME280;44389;51.578;5.456;2023-10-08T04:34:08;102231.31;;;13.45;100.00
58622;BME280;44389;51.578;5.456;2023-10-08T04:36:47;102230.44;;;13.45;100.00
58622;BME280;44389;51.578;5.456;2023-10-08T04:39:19;102241.53;;;13.42;100.00
58622;BME280;44389;51.578;5.456;2023-10-08T04:42:03;102239.78;;;13.41;100.00
58622;BME280;44389;51.578;5.456;2023-10-08T04:44:39;102250.00;;;13.38;100.00
58622;BME280;44389;51.578;5.456;2023-10-08T04:47:04;102265.56;;;13.38;100.00
58622;BME280;44389;51.578;5.456;2023-10-08T04:49:30;102261.97;;;13.36;100.00
58622;BME280;44389;51.578;5.456;2023-10-08T04:51:58;102261.84;;;13.33;100.00
58622;BME280;44389;51.578;5.456;2023-10-08T04:54:27;102256.56;;;13.30;100.00
58622;BME280;44389;51.578;5.456;2023-10-08T04:56:55;102257.31;;;13.27;100.00
58622;BME280;44389;51.578;5.456;2023-10-08T04:59:22;102258.91;;;13.24;100.00
58622;BME280;44389;51.578;5.456;2023-10-08T05:01:47;102262.25;;;13.21;100.00
58622;BME280;44389;51.578;5.456;2023-10-08T05:04:14;102259.50;;;13.18;100.00
58622;BME280;44389;51.578;5.456;2023-10-08T05:06:49;102258.59;;;13.16;100.00
58622;BME280;44389;51.578;5.456;2023-10-08T05:09:26;102276.66;;;13.14;100.00
58622;BME280;44389;51.578;5.456;2023-10-08T05:12:04;102279.91;;;13.10;100.00
58622;BME280;44389;51.578;5.456;2023-10-08T05:14:48;102271.06;;;13.05;100.00
58622;BME280;44389;51.578;5.456;2023-10-08T05:17:33;102271.69;;;12.99;100.00
58622;BME280;44389;51.578;5.456;2023-10-08T05:20:11;102262.91;;;12.96;100.00
58622;BME280;44389;51.578;5.456;2023-10-08T05:22:55;102265.38;;;12.93;100.00
58622;BME280;44389;51.578;5.456;2023-10-08T05:25:46;102269.75;;;12.94;100.00
58622;BME280;44389;51.578;5.456;2023-10-08T05:31:10;102278.25;;;12.91;100.00
58622;BME280;44389;51.578;5.456;2023-10-08T05:33:38;102282.53;;;12.91;100.00
58622;BME280;44389;51.578;5.456;2023-10-08T05:36:25;102291.09;;;12.90;100.00
58622;BME280;44389;51.578;5.456;2023-10-08T05:39:00;102286.81;;;12.90;100.00
58622;BME280;44389;51.578;5.456;2023-10-08T05:41:28;102284.31;;;12.92;100.00
58622;BME280;44389;51.578;5.456;2023-10-08T05:44:03;102285.06;;;12.89;100.00
58622;BME280;44389;51.578;5.456;2023-10-08T05:46:49;102285.94;;;12.90;100.00
58622;BME280;44389;51.578;5.456;2023-10-08T05:49:20;102282.53;;;12.91;100.00
58622;BME280;44389;51.578;5.456;2023-10-08T05:52:03;102270.41;;;12.90;100.00
58622;BME280;44389;51.578;5.456;2023-10-08T05:54:29;102249.69;;;12.90;100.00
58622;BME280;44389;51.578;5.456;2023-10-08T05:56:54;102234.16;;;12.90;100.00
58622;BME280;44389;51.578;5.456;2023-10-08T05:59:43;102227.38;;;12.92;100.00
58622;BME280;44389;51.578;5.456;2023-10-08T06:02:38;102242.91;;;12.92;100.00
58622;BME280;44389;51.578;5.456;2023-10-08T06:05:04;102253.38;;;12.95;100.00
58622;BME280;44389;51.578;5.456;2023-10-08T06:07:39;102246.56;;;12.97;100.00
58622;BME280;44389;51.578;5.456;2023-10-08T06:10:20;102246.56;;;12.97;100.00
58622;BME280;44389;51.578;5.456;2023-10-08T06:13:13;102272.56;;;13.00;100.00
58622;BME280;44389;51.578;5.456;2023-10-08T06:15:51;102276.91;;;13.01;100.00
58622;BME280;44389;51.578;5.456;2023-10-08T06:18:31;102283.81;;;13.00;100.00
58622;BME280;44389;51.578;5.456;2023-10-08T06:21:03;102286.34;;;12.99;100.00
58622;BME280;44389;51.578;5.456;2023-10-08T06:23:33;102289.81;;;12.99;100.00
58622;BME280;44389;51.578;5.456;2023-10-08T06:26:00;102290.56;;;12.97;100.00
58622;BME280;44389;51.578;5.456;2023-10-08T06:28:30;102296.53;;;12.96;100.00
58622;BME280;44389;51.578;5.456;2023-10-08T06:30:55;102295.69;;;12.95;100.00
58622;BME280;44389;51.578;5.456;2023-10-08T06:33:22;102302.53;;;12.95;100.00
58622;BME280;44389;51.578;5.456;2023-10-08T06:35:47;102298.22;;;12.94;100.00
58622;BME280;44389;51.578;5.456;2023-10-08T06:38:28;102291.25;;;12.93;100.00
58622;BME280;44389;51.578;5.456;2023-10-08T06:40:55;102286.88;;;12.92;100.00
58622;BME280;44389;51.578;5.456;2023-10-08T06:43:25;102279.25;;;12.95;100.00
58622;BME280;44389;51.578;5.456;2023-10-08T06:45:50;102269.03;;;12.98;100.00
58622;BME280;44389;51.578;5.456;2023-10-08T06:48:19;102293.41;;;13.03;100.00
58622;BME280;44389;51.578;5.456;2023-10-08T06:50:48;102305.66;;;13.07;100.00
58622;BME280;44389;51.578;5.456;2023-10-08T06:53:14;102316.13;;;13.10;100.00
58622;BME280;44389;51.578;5.456;2023-10-08T06:55:40;102318.81;;;13.12;100.00
58622;BME280;44389;51.578;5.456;2023-10-08T06:58:05;102330.84;;;13.11;100.00
58622;BME280;44389;51.578;5.456;2023-10-08T07:00:31;102334.19;;;13.09;100.00
58622;BME280;44389;51.578;5.456;2023-10-08T07:03:26;102342.03;;;13.10;100.00
58622;BME280;44389;51.578;5.456;2023-10-08T07:05:51;102342.16;;;13.13;100.00
58622;BME280;44389;51.578;5.456;2023-10-08T07:08:22;102339.84;;;13.20;100.00
58622;BME280;44389;51.578;5.456;2023-10-08T07:10:52;102323.88;;;13.30;100.00
58622;BME280;44389;51.578;5.456;2023-10-08T07:13:18;102327.00;;;13.42;100.00
58622;BME280;44389;51.578;5.456;2023-10-08T07:15:44;102336.22;;;13.57;100.00
58622;BME280;44389;51.578;5.456;2023-10-08T07:18:10;102329.84;;;13.70;100.00
58622;BME280;44389;51.578;5.456;2023-10-08T07:20:38;102344.19;;;13.82;100.00
58622;BME280;44389;51.578;5.456;2023-10-08T07:23:05;102338.69;;;13.96;100.00
58622;BME280;44389;51.578;5.456;2023-10-08T07:25:34;102338.31;;;14.09;100.00
58622;BME280;44389;51.578;5.456;2023-10-08T07:28:02;102341.31;;;14.20;100.00
58622;BME280;44389;51.578;5.456;2023-10-08T07:30:30;102340.78;;;14.29;100.00
58622;BME280;44389;51.578;5.456;2023-10-08T07:32:57;102344.59;;;14.37;100.00
58622;BME280;44389;51.578;5.456;2023-10-08T07:35:23;102347.63;;;14.49;100.00
58622;BME280;44389;51.578;5.456;2023-10-08T07:37:51;102348.03;;;14.60;100.00
58622;BME280;44389;51.578;5.456;2023-10-08T07:40:18;102358.03;;;14.72;100.00
58622;BME280;44389;51.578;5.456;2023-10-08T07:42:45;102360.13;;;14.82;100.00
58622;BME280;44389;51.578;5.456;2023-10-08T07:45:11;102357.81;;;14.90;100.00
58622;BME280;44389;51.578;5.456;2023-10-08T07:47:42;102355.56;;;15.01;100.00
58622;BME280;44389;51.578;5.456;2023-10-08T07:50:08;102352.47;;;15.11;100.00
58622;BME280;44389;51.578;5.456;2023-10-08T07:52:37;102359.75;;;15.22;100.00
58622;BME280;44389;51.578;5.456;2023-10-08T07:55:02;102362.75;;;15.33;100.00
58622;BME280;44389;51.578;5.456;2023-10-08T07:57:29;102356.13;;;15.42;100.00
58622;BME280;44389;51.578;5.456;2023-10-08T07:59:56;102356.44;;;15.52;100.00
58622;BME280;44389;51.578;5.456;2023-10-08T08:02:26;102363.66;;;15.60;100.00
58622;BME280;44389;51.578;5.456;2023-10-08T08:04:52;102381.06;;;15.63;100.00
58622;BME280;44389;51.578;5.456;2023-10-08T08:07:18;102385.22;;;15.58;100.00
58622;BME280;44389;51.578;5.456;2023-10-08T08:09:47;102393.66;;;15.51;100.00
58622;BME280;44389;51.578;5.456;2023-10-08T08:12:25;102402.94;;;15.44;100.00
58622;BME280;44389;51.578;5.456;2023-10-08T08:14:53;102404.56;;;15.40;100.00
58622;BME280;44389;51.578;5.456;2023-10-08T08:17:19;102397.47;;;15.36;100.00
58622;BME280;44389;51.578;5.456;2023-10-08T08:19:45;102407.09;;;15.39;100.00
58622;BME280;44389;51.578;5.456;2023-10-08T08:22:12;102400.28;;;15.42;100.00
58622;BME280;44389;51.578;5.456;2023-10-08T08:24:40;102411.63;;;15.44;100.00
58622;BME280;44389;51.578;5.456;2023-10-08T08:27:09;102408.47;;;15.53;100.00
58622;BME280;44389;51.578;5.456;2023-10-08T08:29:51;102425.41;;;15.68;100.00
58622;BME280;44389;51.578;5.456;2023-10-08T08:32:20;102419.75;;;15.79;100.00
58622;BME280;44389;51.578;5.456;2023-10-08T08:34:46;102431.41;;;15.91;100.00
58622;BME280;44389;51.578;5.456;2023-10-08T08:37:15;102429.97;;;16.01;100.00
58622;BME280;44389;51.578;5.456;2023-10-08T08:39:40;102434.69;;;16.12;100.00
58622;BME280;44389;51.578;5.456;2023-10-08T08:42:06;102425.47;;;16.22;100.00
58622;BME280;44389;51.578;5.456;2023-10-08T08:44:33;102422.31;;;16.33;100.00
58622;BME280;44389;51.578;5.456;2023-10-08T08:47:01;102431.56;;;16.50;100.00
58622;BME280;44389;51.578;5.456;2023-10-08T08:49:31;102431.22;;;16.68;100.00
58622;BME280;44389;51.578;5.456;2023-10-08T08:51:57;102429.22;;;16.90;100.00
58622;BME280;44389;51.578;5.456;2023-10-08T08:54:25;102428.97;;;17.09;100.00
58622;BME280;44389;51.578;5.456;2023-10-08T08:56:51;102425.06;;;17.27;100.00
58622;BME280;44389;51.578;5.456;2023-10-08T08:59:18;102427.19;;;17.40;100.00
58622;BME280;44389;51.578;5.456;2023-10-08T09:01:45;102426.72;;;17.57;100.00
58622;BME280;44389;51.578;5.456;2023-10-08T09:04:12;102436.66;;;17.70;100.00
58622;BME280;44389;51.578;5.456;2023-10-08T09:06:41;102443.09;;;17.85;100.00
58622;BME280;44389;51.578;5.456;2023-10-08T09:09:07;102441.56;;;17.93;100.00
58622;BME280;44389;51.578;5.456;2023-10-08T09:11:50;102439.13;;;17.99;100.00
58622;BME280;44389;51.578;5.456;2023-10-08T09:14:23;102441.88;;;18.05;100.00
58622;BME280;44389;51.578;5.456;2023-10-08T09:16:50;102447.25;;;18.12;100.00
58622;BME280;44389;51.578;5.456;2023-10-08T09:19:15;102446.44;;;18.14;100.00
58622;BME280;44389;51.578;5.456;2023-10-08T09:22:00;102448.25;;;18.17;100.00
58622;BME280;44389;51.578;5.456;2023-10-08T09:24:26;102449.44;;;18.31;100.00
58622;BME280;44389;51.578;5.456;2023-10-08T09:26:51;102461.88;;;18.41;100.00
58622;BME280;44389;51.578;5.456;2023-10-08T09:29:17;102451.59;;;18.49;100.00
58622;BME280;44389;51.578;5.456;2023-10-08T09:31:42;102462.94;;;18.51;100.00
58622;BME280;44389;51.578;5.456;2023-10-08T09:34:13;102456.06;;;18.55;100.00
58622;BME280;44389;51.578;5.456;2023-10-08T09:36:41;102456.09;;;18.56;100.00
58622;BME280;44389;51.578;5.456;2023-10-08T09:39:07;102459.56;;;18.55;100.00
58622;BME280;44389;51.578;5.456;2023-10-08T09:41:32;102454.22;;;18.51;100.00
58622;BME280;44389;51.578;5.456;2023-10-08T09:43:58;102468.75;;;18.39;100.00
58622;BME280;44389;51.578;5.456;2023-10-08T09:46:25;102463.31;;;18.29;100.00
58622;BME280;44389;51.578;5.456;2023-10-08T09:48:54;102454.53;;;18.25;100.00
58622;BME280;44389;51.578;5.456;2023-10-08T09:51:21;102449.34;;;18.28;100.00
58622;BME280;44389;51.578;5.456;2023-10-08T09:56:14;102439.00;;;18.31;100.00
58622;BME280;44389;51.578;5.456;2023-10-08T09:58:43;102437.38;;;18.36;100.00
58622;BME280;44389;51.578;5.456;2023-10-08T10:01:08;102432.22;;;18.39;100.00
58622;BME280;44389;51.578;5.456;2023-10-08T10:03:34;102435.84;;;18.46;100.00
58622;BME280;44389;51.578;5.456;2023-10-08T10:06:01;102429.09;;;18.54;100.00
58622;BME280;44389;51.578;5.456;2023-10-08T10:08:26;102429.91;;;18.53;100.00
58622;BME280;44389;51.578;5.456;2023-10-08T10:10:59;102424.84;;;18.59;100.00
58622;BME280;44389;51.578;5.456;2023-10-08T10:13:28;102425.97;;;18.72;100.00
58622;BME280;44389;51.578;5.456;2023-10-08T10:15:54;102441.97;;;18.88;100.00
58622;BME280;44389;51.578;5.456;2023-10-08T10:21:28;102451.66;;;18.92;100.00
58622;BME280;44389;51.578;5.456;2023-10-08T10:23:46;102454.25;;;18.90;100.00
58622;BME280;44389;51.578;5.456;2023-10-08T10:26:21;102447.13;;;18.85;100.00
58622;BME280;44389;51.578;5.456;2023-10-08T10:31:34;102429.09;;;18.56;100.00
58622;BME280;44389;51.578;5.456;2023-10-08T10:34:08;102436.81;;;18.50;100.00
58622;BME280;44389;51.578;5.456;2023-10-08T10:36:34;102433.31;;;18.49;100.00
58622;BME280;44389;51.578;5.456;2023-10-08T10:38:59;102430.75;;;18.51;100.00
58622;BME280;44389;51.578;5.456;2023-10-08T10:41:25;102439.50;;;18.53;100.00
58622;BME280;44389;51.578;5.456;2023-10-08T10:43:52;102448.09;;;18.49;100.00
58622;BME280;44389;51.578;5.456;2023-10-08T10:46:17;102448.97;;;18.48;100.00
58622;BME280;44389;51.578;5.456;2023-10-08T10:48:56;102456.72;;;18.46;100.00
58622;BME280;44389;51.578;5.456;2023-10-08T10:51:42;102450.59;;;18.42;100.00
58622;BME280;44389;51.578;5.456;2023-10-08T10:54:07;102457.69;;;18.50;100.00
58622;BME280;44389;51.578;5.456;2023-10-08T10:56:34;102462.06;;;18.51;100.00
58622;BME280;44389;51.578;5.456;2023-10-08T10:59:05;102453.09;;;18.39;100.00
58622;BME280;44389;51.578;5.456;2023-10-08T11:01:41;102456.97;;;18.19;100.00
58622;BME280;44389;51.578;5.456;2023-10-08T11:04:17;102472.91;;;17.94;100.00
58622;BME280;44389;51.578;5.456;2023-10-08T11:06:44;102470.69;;;17.76;100.00
58622;BME280;44389;51.578;5.456;2023-10-08T11:09:10;102467.00;;;17.68;100.00
58622;BME280;44389;51.578;5.456;2023-10-08T11:11:40;102461.59;;;17.60;100.00
58622;BME280;44389;51.578;5.456;2023-10-08T11:14:10;102462.34;;;17.56;100.00
58622;BME280;44389;51.578;5.456;2023-10-08T11:16:41;102460.38;;;17.48;100.00
58622;BME280;44389;51.578;5.456;2023-10-08T11:19:08;102459.38;;;17.42;100.00
58622;BME280;44389;51.578;5.456;2023-10-08T11:21:47;102466.19;;;17.37;100.00
58622;BME280;44389;51.578;5.456;2023-10-08T11:24:12;102462.72;;;17.37;100.00
58622;BME280;44389;51.578;5.456;2023-10-08T11:26:50;102462.16;;;17.49;100.00
58622;BME280;44389;51.578;5.456;2023-10-08T11:29:31;102449.50;;;17.63;100.00
58622;BME280;44389;51.578;5.456;2023-10-08T11:31:56;102446.28;;;17.73;100.00
58622;BME280;44389;51.578;5.456;2023-10-08T11:34:21;102442.94;;;17.78;100.00
58622;BME280;44389;51.578;5.456;2023-10-08T11:36:52;102446.09;;;17.99;100.00
58622;BME280;44389;51.578;5.456;2023-10-08T11:39:20;102440.31;;;18.14;100.00
58622;BME280;44389;51.578;5.456;2023-10-08T11:41:55;102439.97;;;17.98;100.00
58622;BME280;44389;51.578;5.456;2023-10-08T11:44:20;102439.69;;;17.87;100.00
58622;BME280;44389;51.578;5.456;2023-10-08T11:46:48;102442.25;;;17.86;100.00
58622;BME280;44389;51.578;5.456;2023-10-08T11:49:16;102439.72;;;17.89;100.00
58622;BME280;44389;51.578;5.456;2023-10-08T11:51:50;102438.13;;;17.94;100.00
58622;BME280;44389;51.578;5.456;2023-10-08T11:54:17;102437.94;;;17.88;100.00
58622;BME280;44389;51.578;5.456;2023-10-08T11:56:42;102437.47;;;17.69;100.00
58622;BME280;44389;51.578;5.456;2023-10-08T11:59:07;102430.44;;;17.65;100.00
58622;BME280;44389;51.578;5.456;2023-10-08T12:01:37;102421.66;;;17.61;100.00
58622;BME280;44389;51.578;5.456;2023-10-08T12:04:03;102420.75;;;17.61;100.00
58622;BME280;44389;51.578;5.456;2023-10-08T12:06:28;102414.59;;;17.57;100.00
58622;BME280;44389;51.578;5.456;2023-10-08T12:08:57;102409.81;;;17.41;100.00
58622;BME280;44389;51.578;5.456;2023-10-08T12:11:35;102408.59;;;17.28;100.00
58622;BME280;44389;51.578;5.456;2023-10-08T12:14:00;102410.28;;;17.26;100.00
58622;BME280;44389;51.578;5.456;2023-10-08T12:16:26;102412.09;;;17.28;100.00
58622;BME280;44389;51.578;5.456;2023-10-08T12:18:55;102400.03;;;17.32;100.00
58622;BME280;44389;51.578;5.456;2023-10-08T12:21:27;102405.56;;;17.44;100.00
58622;BME280;44389;51.578;5.456;2023-10-08T12:23:59;102403.22;;;17.55;100.00
58622;BME280;44389;51.578;5.456;2023-10-08T12:26:25;102404.38;;;17.65;100.00
58622;BME280;44389;51.578;5.456;2023-10-08T12:28:50;102400.22;;;17.73;100.00
58622;BME280;44389;51.578;5.456;2023-10-08T12:31:16;102401.50;;;17.91;100.00
58622;BME280;44389;51.578;5.456;2023-10-08T12:33:41;102404.59;;;18.09;100.00
58622;BME280;44389;51.578;5.456;2023-10-08T12:36:08;102394.19;;;18.13;100.00
58622;BME280;44389;51.578;5.456;2023-10-08T12:38:37;102392.75;;;18.25;100.00
58622;BME280;44389;51.578;5.456;2023-10-08T12:41:02;102394.03;;;18.45;100.00
58622;BME280;44389;51.578;5.456;2023-10-08T12:43:36;102393.59;;;18.64;100.00
58622;BME280;44389;51.578;5.456;2023-10-08T12:46:03;102393.81;;;18.75;100.00
58622;BME280;44389;51.578;5.456;2023-10-08T12:48:29;102396.59;;;18.83;100.00
58622;BME280;44389;51.578;5.456;2023-10-08T12:50:54;102389.59;;;18.82;100.00
58622;BME280;44389;51.578;5.456;2023-10-08T12:53:23;102388.66;;;18.78;100.00
58622;BME280;44389;51.578;5.456;2023-10-08T12:56:04;102378.19;;;18.78;100.00
58622;BME280;44389;51.578;5.456;2023-10-08T12:58:39;102383.41;;;18.76;100.00
58622;BME280;44389;51.578;5.456;2023-10-08T13:01:13;102376.25;;;18.68;100.00
58622;BME280;44389;51.578;5.456;2023-10-08T13:03:39;102371.66;;;18.54;100.00
58622;BME280;44389;51.578;5.456;2023-10-08T13:06:09;102366.41;;;18.53;100.00